Le Ponant — FGZZ — position and weather

sailwx.info

Track history (hours):
 
Tides and Currents Weather Stations Pressure Air Temp Water Temp Dewpoint Dewpoint Depression Visibility Wind Speed Wind Dir Waves Ship Positions

Le Ponant

Operator: Compangy des Iles du Ponant

Last reported at 2016-Jul-20 01:17 UTC. Time now 2016-Jul-23 13:01 UTC.
Position N 42°51' E 007°40'.

Length 84 m; draft 4.2 m.

Type: Passenger vessel. MMSI: 227186000.

Date/timePositionNaut miles runAvg speedWind from/ knotsBaromVisibWave heightAir tempDewpointWater temp
2016-Jul-20 01:17N 42°51' E 007°40'912.2
2016-Jul-20 00:33N 42°56' E 007°30'1211.9
2016-Jul-19 23:33N 43°02' E 007°16'1211.5
2016-Jul-19 22:33N 43°08' E 007°03'1111.2
2016-Jul-19 21:33N 43°14' E 006°50'10 1.2
2016-Jul-19 13:31N 43°17' E 006°37'0 0.0
2016-Jul-19 12:31N 43°17' E 006°37'14 1.8
2016-Jul-19 04:29N 43°20' E 006°56'5 1.5
2016-Jul-19 01:10N 43°21' E 007°03'2 2.6
2016-Jul-19 00:33N 43°22' E 007°04'2 2.4
2016-Jul-18 23:33N 43°24' E 007°06'3 2.7
2016-Jul-18 22:33N 43°26' E 007°08'3 3.1
2016-Jul-18 21:33N 43°29' E 007°11'3 3.3
2016-Jul-18 20:33N 43°31' E 007°13'3 3.1
2016-Jul-18 19:34N 43°34' E 007°15'3 3.4
2016-Jul-18 18:33N 43°37' E 007°16'4 3.8
2016-Jul-18 17:33N 43°41' E 007°17'1 0.5
2016-Jul-18 16:16N 43°42' E 007°17'0 0.0
2016-Jul-18 15:16N 43°42' E 007°17'0 0.0
2016-Jul-18 14:22N 43°42' E 007°17'0 0.0
2016-Jul-18 13:28N 43°42' E 007°17'0 0.0
2016-Jul-18 12:22N 43°42' E 007°17'0 0.0
2016-Jul-18 11:28N 43°42' E 007°17'0 0.0
2016-Jul-18 10:28N 43°42' E 007°17'0 0.0
2016-Jul-18 09:22N 43°42' E 007°17'0 0.0
2016-Jul-18 08:28N 43°42' E 007°17'0 0.0
2016-Jul-18 07:28N 43°42' E 007°17'0 0.0
2016-Jul-18 06:22N 43°42' E 007°17'1 0.7
2016-Jul-18 05:33N 43°41' E 007°17'6 6.3
2016-Jul-18 04:33N 43°36' E 007°21'9 9.1
2016-Jul-18 03:33N 43°30' E 007°31'18 8.9
2016-Jul-18 01:31N 43°20' E 007°52'9 9.7
2016-Jul-18 00:33N 43°14' E 008°02'1010.4
2016-Jul-17 23:33N 43°07' E 008°13'1110.5
2016-Jul-17 22:33N 43°00' E 008°24'1010.0
2016-Jul-17 21:33N 42°54' E 008°34'23 2.2
2016-Jul-17 11:25N 42°38' E 008°57'0 0.0
2016-Jul-17 06:31N 42°38' E 008°57'  
2016-Jul-13 03:15N 41°12' E 009°42'911.3
2016-Jul-13 02:27N 41°17' E 009°32'79 4.0
2016-Jul-12 06:33N 42°23' E 008°32'17 8.4
2016-Jul-12 04:34N 42°37' E 008°20'14 9.8
2016-Jul-12 03:09N 42°49' E 008°10'810.2
2016-Jul-12 02:24N 42°55' E 008°04'3010.6
2016-Jul-11 23:33N 43°20' E 007°41'5 4.0
2016-Jul-11 22:24N 43°24' E 007°37'4 4.3
2016-Jul-11 21:33N 43°27' E 007°34'2 2.4
2016-Jul-11 20:33N 43°28' E 007°32'3 2.6
2016-Jul-11 19:33N 43°30' E 007°30'6 5.6
2016-Jul-11 18:34N 43°35' E 007°25'8 8.2
2016-Jul-11 17:33N 43°41' E 007°17'1 0.1
2016-Jul-11 06:13N 43°42' E 007°17'8 4.5
2016-Jul-11 04:33N 43°36' E 007°24'8 8.2
2016-Jul-11 03:32N 43°31' E 007°33'9 9.1
2016-Jul-11 02:33N 43°25' E 007°42'9 9.2
2016-Jul-11 01:33N 43°19' E 007°52'9 9.2
2016-Jul-11 00:33N 43°13' E 008°02'10 9.6
2016-Jul-10 23:34N 43°07' E 008°12'1010.4
2016-Jul-10 22:33N 43°01' E 008°23'10 9.6
2016-Jul-10 21:33N 42°55' E 008°33'12 9.5
2016-Jul-10 20:14N 42°47' E 008°46'7 9.5
2016-Jul-10 19:29N 42°42' E 008°54'4 4.4
2016-Jul-10 18:32N 42°38' E 008°57'0 0.0
2016-Jul-10 17:32N 42°38' E 008°57'0 0.0
2016-Jul-10 13:29N 42°38' E 008°57'0 0.0
2016-Jul-10 06:26N 42°38' E 008°57'2 2.8
2016-Jul-10 05:33N 42°40' E 008°55'9 9.4
2016-Jul-10 04:33N 42°38' E 008°43'1111.0
2016-Jul-10 03:31N 42°33' E 008°29'  
Track history (hours):
 
Tides and Currents Weather Stations Pressure Air Temp Water Temp Dewpoint Dewpoint Depression Visibility Wind Speed Wind Dir Waves Ship Positions

Le Ponant

Operator: Compangy des Iles du Ponant

Last reported at 2016-Jul-20 01:17 UTC. Time now 2016-Jul-23 13:01 UTC.
Position N 42°51' E 007°40'.

Length 84 m; draft 4.2 m.

Type: Passenger vessel. MMSI: 227186000.

Date/timePositionNaut miles runAvg speedWind from/ knotsBaromVisibWave heightAir tempDewpointWater temp
2016-Jul-20 01:17N 42°51' E 007°40'912.2
2016-Jul-20 00:33N 42°56' E 007°30'1211.9
2016-Jul-19 23:33N 43°02' E 007°16'1211.5
2016-Jul-19 22:33N 43°08' E 007°03'1111.2
2016-Jul-19 21:33N 43°14' E 006°50'10 1.2
2016-Jul-19 13:31N 43°17' E 006°37'0 0.0
2016-Jul-19 12:31N 43°17' E 006°37'14 1.8
2016-Jul-19 04:29N 43°20' E 006°56'5 1.5
2016-Jul-19 01:10N 43°21' E 007°03'2 2.6
2016-Jul-19 00:33N 43°22' E 007°04'2 2.4
2016-Jul-18 23:33N 43°24' E 007°06'3 2.7
2016-Jul-18 22:33N 43°26' E 007°08'3 3.1
2016-Jul-18 21:33N 43°29' E 007°11'3 3.3
2016-Jul-18 20:33N 43°31' E 007°13'3 3.1
2016-Jul-18 19:34N 43°34' E 007°15'3 3.4
2016-Jul-18 18:33N 43°37' E 007°16'4 3.8
2016-Jul-18 17:33N 43°41' E 007°17'1 0.5
2016-Jul-18 16:16N 43°42' E 007°17'0 0.0
2016-Jul-18 15:16N 43°42' E 007°17'0 0.0
2016-Jul-18 14:22N 43°42' E 007°17'0 0.0
2016-Jul-18 13:28N 43°42' E 007°17'0 0.0
2016-Jul-18 12:22N 43°42' E 007°17'0 0.0
2016-Jul-18 11:28N 43°42' E 007°17'0 0.0
2016-Jul-18 10:28N 43°42' E 007°17'0 0.0
2016-Jul-18 09:22N 43°42' E 007°17'0 0.0
2016-Jul-18 08:28N 43°42' E 007°17'0 0.0
2016-Jul-18 07:28N 43°42' E 007°17'0 0.0
2016-Jul-18 06:22N 43°42' E 007°17'1 0.7
2016-Jul-18 05:33N 43°41' E 007°17'6 6.3
2016-Jul-18 04:33N 43°36' E 007°21'9 9.1
2016-Jul-18 03:33N 43°30' E 007°31'18 8.9
2016-Jul-18 01:31N 43°20' E 007°52'9 9.7
2016-Jul-18 00:33N 43°14' E 008°02'1010.4
2016-Jul-17 23:33N 43°07' E 008°13'1110.5
2016-Jul-17 22:33N 43°00' E 008°24'1010.0
2016-Jul-17 21:33N 42°54' E 008°34'23 2.2
2016-Jul-17 11:25N 42°38' E 008°57'0 0.0
2016-Jul-17 06:31N 42°38' E 008°57'  
2016-Jul-13 03:15N 41°12' E 009°42'911.3
2016-Jul-13 02:27N 41°17' E 009°32'79 4.0
2016-Jul-12 06:33N 42°23' E 008°32'17 8.4
2016-Jul-12 04:34N 42°37' E 008°20'14 9.8
2016-Jul-12 03:09N 42°49' E 008°10'810.2
2016-Jul-12 02:24N 42°55' E 008°04'3010.6
2016-Jul-11 23:33N 43°20' E 007°41'5 4.0
2016-Jul-11 22:24N 43°24' E 007°37'4 4.3
2016-Jul-11 21:33N 43°27' E 007°34'2 2.4
2016-Jul-11 20:33N 43°28' E 007°32'3 2.6
2016-Jul-11 19:33N 43°30' E 007°30'6 5.6
2016-Jul-11 18:34N 43°35' E 007°25'8 8.2
2016-Jul-11 17:33N 43°41' E 007°17'1 0.1
2016-Jul-11 06:13N 43°42' E 007°17'8 4.5
2016-Jul-11 04:33N 43°36' E 007°24'8 8.2
2016-Jul-11 03:32N 43°31' E 007°33'9 9.1
2016-Jul-11 02:33N 43°25' E 007°42'9 9.2
2016-Jul-11 01:33N 43°19' E 007°52'9 9.2
2016-Jul-11 00:33N 43°13' E 008°02'10 9.6
2016-Jul-10 23:34N 43°07' E 008°12'1010.4
2016-Jul-10 22:33N 43°01' E 008°23'10 9.6
2016-Jul-10 21:33N 42°55' E 008°33'12 9.5
2016-Jul-10 20:14N 42°47' E 008°46'7 9.5
2016-Jul-10 19:29N 42°42' E 008°54'4 4.4
2016-Jul-10 18:32N 42°38' E 008°57'0 0.0
2016-Jul-10 17:32N 42°38' E 008°57'0 0.0
2016-Jul-10 13:29N 42°38' E 008°57'0 0.0
2016-Jul-10 06:26N 42°38' E 008°57'2 2.8
2016-Jul-10 05:33N 42°40' E 008°55'9 9.4
2016-Jul-10 04:33N 42°38' E 008°43'1111.0
2016-Jul-10 03:31N 42°33' E 008°29'  

Dump ship's entire track history